AirNav   Air Wisconsin Up To $57,000 Bonus
 
 1284 users online  

KPHK Palm Beach County Glades Airport
Pahokee, Florida, USA

GOING TO PAHOKEE?


FAA INFORMATION EFFECTIVE 25 MARCH 2021

Location

FAA Identifier: PHK
Lat/Long: 26-47-06.1000N 080-41-36.1000W
26-47.101667N 080-41.601667W
26.7850278,-80.6933611
(estimated)
Elevation: 15.9 ft. / 4.8 m (surveyed)
Variation: 07W (2020)
From city: 3 miles SW of PAHOKEE, FL
Time zone: UTC -4 (UTC -5 during Standard Time)
Zip code: 33476

Airport Operations

Airport use: Open to the public
Activation date: 06/1949
Control tower: no
ARTCC: MIAMI CENTER
FSS: MIAMI FLIGHT SERVICE STATION
NOTAMs facility: MIA (NOTAM-D service available)
Attendance: 0800-1800
SVC AFT HR - 561-626-9799.
Wind indicator: lighted
Segmented circle: yes
Lights: ACTVT MIRL RWY 18/36 - CTAF.
Beacon: white-green (lighted land airport)
Operates sunset to sunrise.

Airport Communications

CTAF/UNICOM: 122.8
PALM BEACH APPROACH: 128.3
PALM BEACH DEPARTURE: 128.3
WX AWOS-3PT at 2IS (19 nm W): 124.175 (863-983-7020)

Nearby radio navigation aids

VOR radial/distance  VOR name  Freq  Var
PHK at fieldPAHOKEE VOR/DME115.4000E
PBIr284/33.1PALM BEACH VORTAC115.7003W
LBVr093/37.5LA BELLE VORTAC110.4001E

 
NDB name  Hdg/Dist  Freq  Var  ID
UNITED254/20.640505WUTX ..- - -..-

Airport Services

Fuel available: 100LL JET-A
Parking: hangars and tiedowns
Airframe service: NONE
Powerplant service: NONE
Bottled oxygen: NONE
Bulk oxygen: NONE

Runway Information

Runway 18/36

Dimensions: 4116 x 75 ft. / 1255 x 23 m
Surface: asphalt, in good condition
Weight bearing capacity: 
PCN 13 /F/B/X/T
Single wheel: 20.0
Runway edge lights: medium intensity
RUNWAY 18  RUNWAY 36
Latitude: 26-47.439657N26-46.764527N
Longitude: 080-41.643560W080-41.558973W
Elevation: 15.3 ft.15.6 ft.
Traffic pattern: leftleft
Runway heading: 181 magnetic, 174 true001 magnetic, 354 true
Displaced threshold: 100 ft.52 ft.
Declared distances: TORA:4069 TODA:4069 ASDA:4119 LDA:4016TORA:4016 TODA:4016 ASDA:4170 LDA:4069
Markings: nonprecision, in good conditionnonprecision, in good condition
Visual slope indicator: 2-light PAPI on left (3.00 degrees glide path)2-light PAPI on left (3.00 degrees glide path)
Runway end identifier lights: yesyes
Touchdown point: yes, no lightsyes, no lights
Obstructions: 36 ft. tree, 1050 ft. from runway, 155 ft. right of centerline, 23:1 slope to clear
APCH RATIO 34:1 AT DSPLCD THR.
3 ft. fence, 213 ft. from runway, 250 ft. left of centerline, 6:1 slope to clear
APCH RATIO 34:1 AT DSPLCD THR DUE TO 25 FT PLINE 820 FT FM RWY END 250 FT R OF CNTRLN.

Airport Ownership and Management from official FAA records

Ownership: Publicly-owned
Owner: PALM BEACH COUNTY
DEPARTMENT OF AIRPORTS, 846 PBIA
WEST PALM BEACH, FL 33406-1491
Phone 561-471-7420
Manager: LAURA BEEBE
846 PALM BEACH INTL AIRPORT
WEST PALM BEACH, FL 33406-1470
Phone 561-471-7420

Airport Operational Statistics

Aircraft based on the field: 12
Single engine airplanes: 10
Multi engine airplanes: 1
Helicopters: 1
    
Aircraft operations: avg 101/day *
79% transient general aviation
20% local general aviation
<1% air taxi
* for 12-month period ending 31 December 2018

Additional Remarks

BIRDS ON AND INVOF ARPT.
ARPT SFC COND NOT RPRTD FOR ALL RWYS.
FOR CD IF UNA TO CTC ON FSS FREQ, CTC PALM BEACH APCH AT 561-275-1430.
FBO SVC FEE MAY APPLY.

Instrument Procedures

NOTE: All procedures below are presented as PDF files. If you need a reader for these files, you should download the free Adobe Reader.

NOT FOR NAVIGATION. Please procure official charts for flight.
FAA instrument procedures published for use from 25 March 2021 at 0901Z to 22 April 2021 at 0900z.

 
IAPs - Instrument Approach Procedures
RNAV (GPS) RWY 18   download (219KB)
RNAV (GPS) RWY 36   download (225KB)
NOTE: Special Take-Off Minimums/Departure Procedures apply   download (257KB)

Other nearby airports with instrument procedures:

2IS - Airglades Airport (19 nm W)
06FA - William P Gwinn Airport (21 nm E)
F45 - North Palm Beach County General Aviation Airport (25 nm E)
KOBE - Okeechobee County Airport (30 nm N)
KPBI - Palm Beach International Airport (33 nm E)
 
Loc | Ops | Rwys | IFR | FBO | Links
Com | Nav | Svcs | Stats | Notes

Reliance Aviation
AirBoss

 
Area around KPHK (Palm Beach County Glades Airport)
 
Road maps at: MapQuest Bing Google
 
Aerial photo
WARNING: Photo may not be current or correct
Aerial photo of KPHK (Palm Beach County Glades Airport)
Photo by Dave Fogarty
ATP/CFI-AIS/A&P-IA
Photo taken 28-Oct-2018
looking south.

Do you have a better or more recent aerial photo of Palm Beach County Glades Airport that you would like to share? If so, please send us your photo.

 
Sectional chart

 
Airport distance calculator
Flying to Palm Beach County Glades Airport? Find the distance to fly.

From to KPHK

Sunrise and sunset
Times for 17-Apr-2021
 Local
(UTC-4)
 Zulu
(UTC)
Morning civil twilight06:3410:34
Sunrise06:5810:58
Sunset19:4723:47
Evening civil twilight20:1100:11

Current date and time
Zulu (UTC)  17-Apr-2021 15:27:28
Local (UTC-4)  17-Apr-2021 11:27:28
 
METAR
K2IS 
19nm W 
171515Z AUTO 24012KT 10SM SCT024 SCT031 28/21 A2994 RMK AO2 T02790214
KF45 
25nm E 
171505Z AUTO 24008KT 10SM CLR 29/19 A2995 RMK AO2
KOBE 
30nm N 
171515Z AUTO 24010KT SCT029 SCT035 28/20 A2991 RMK AO2
KPBI 
32nm E 
171453Z 24008KT 10SM FEW024 BKN220 28/21 A2994 RMK AO2 SLP139 T02780206 53015 $
KSUA 
35nm NE 
171447Z 27010G16KT 5SM HZ FEW010 28/19 A2995
TAF
KPBI 
32nm E 
171120Z 1712/1812 VRB04KT P6SM FEW050 SCT250 FM171400 22009KT P6SM FEW035 SCT050 FM171700 20016KT P6SM SCT035 SCT050 FM180100 24005KT P6SM FEW050 SCT250
KSUA 
35nm NE 
171126Z 1712/1812 VRB03KT P6SM SCT050 BKN150 FM171400 22007KT P6SM FEW030 BKN150 FM171900 VRB05KT P6SM FEW035 SCT120 FM172030 13007KT P6SM SCT035 BKN200 AMD NOT SKED
NOTAMs
Click for the latest NOTAMs
NOTAMs are issued by the DoD/FAA and will open in a separate window not controlled by AirNav.

 

 
 

FBO, Fuel Providers, and Aircraft Ground Support

  
 Business Name 
 
 Contact 
 
 Services / Description 
 
Fuel Prices
 
Comments
  
Signature Flight Support 561-924-5253
[web site]
[email]
Airport management, Aviation fuel, Aircraft parking (ramp or tiedown), Hangars, GPU / Power cart, Passenger terminal and lounge, Public telephone, Restrooms
 
Face masks required  
 
More info about Signature Flight Support
independent
100LL Jet A
FS $5.69 $6.52 
 Updated 16-Apr-2021
 
   write
FS=Full service
Update Fuel Prices
 

Would you like to see your business listed on this page?

 If your business provides an interesting product or service to pilots, flight crews, aircraft, or users of the Palm Beach County Glades Airport, you should consider listing it here.  To start the listing process, click on the button below
 
Add a business
 

Other Pages about Palm Beach County Glades Airport

www.pbia.org/...
 
Update a link
 
Copyright © AirNav, LLC. All rights reserved. Privacy Policy  Contact